sensor_id;sensor_type;location;lat;lon;timestamp;temperature;humidity
11385;DHT22;5747;56.748;13.882;2023-11-21T00:00:47;1.80;99.90
11385;DHT22;5747;56.748;13.882;2023-11-21T00:03:15;1.80;99.90
11385;DHT22;5747;56.748;13.882;2023-11-21T00:05:44;1.80;99.90
11385;DHT22;5747;56.748;13.882;2023-11-21T00:08:12;1.90;99.90
11385;DHT22;5747;56.748;13.882;2023-11-21T00:10:41;1.90;99.90
11385;DHT22;5747;56.748;13.882;2023-11-21T00:13:10;1.80;99.90
11385;DHT22;5747;56.748;13.882;2023-11-21T00:15:39;1.80;99.90
11385;DHT22;5747;56.748;13.882;2023-11-21T00:18:08;1.90;99.90
11385;DHT22;5747;56.748;13.882;2023-11-21T00:20:37;1.90;99.90
11385;DHT22;5747;56.748;13.882;2023-11-21T00:23:05;1.90;99.90
11385;DHT22;5747;56.748;13.882;2023-11-21T00:25:33;1.80;99.90
11385;DHT22;5747;56.748;13.882;2023-11-21T00:28:03;1.80;99.90
11385;DHT22;5747;56.748;13.882;2023-11-21T00:30:33;1.80;99.90
11385;DHT22;5747;56.748;13.882;2023-11-21T00:33:01;1.70;99.90
11385;DHT22;5747;56.748;13.882;2023-11-21T00:35:29;1.80;99.90
11385;DHT22;5747;56.748;13.882;2023-11-21T00:37:57;1.80;99.90
11385;DHT22;5747;56.748;13.882;2023-11-21T00:40:25;1.80;99.90
11385;DHT22;5747;56.748;13.882;2023-11-21T00:42:54;1.70;99.90
11385;DHT22;5747;56.748;13.882;2023-11-21T00:45:25;1.80;99.90
11385;DHT22;5747;56.748;13.882;2023-11-21T00:47:53;1.70;99.90
11385;DHT22;5747;56.748;13.882;2023-11-21T00:50:21;1.70;99.90
11385;DHT22;5747;56.748;13.882;2023-11-21T00:52:50;1.80;99.90
11385;DHT22;5747;56.748;13.882;2023-11-21T00:55:18;1.80;99.90
11385;DHT22;5747;56.748;13.882;2023-11-21T00:57:46;1.80;99.90
11385;DHT22;5747;56.748;13.882;2023-11-21T01:00:15;1.70;99.90
11385;DHT22;5747;56.748;13.882;2023-11-21T01:02:45;1.80;99.90
11385;DHT22;5747;56.748;13.882;2023-11-21T01:05:14;1.70;99.90
11385;DHT22;5747;56.748;13.882;2023-11-21T01:07:42;1.70;99.90
11385;DHT22;5747;56.748;13.882;2023-11-21T01:10:10;1.70;99.90
11385;DHT22;5747;56.748;13.882;2023-11-21T01:12:39;1.70;99.90
11385;DHT22;5747;56.748;13.882;2023-11-21T01:15:07;1.70;99.90
11385;DHT22;5747;56.748;13.882;2023-11-21T01:17:36;1.70;99.90
11385;DHT22;5747;56.748;13.882;2023-11-21T01:20:07;1.70;99.90
11385;DHT22;5747;56.748;13.882;2023-11-21T01:22:39;1.70;99.90
11385;DHT22;5747;56.748;13.882;2023-11-21T01:25:08;1.70;99.90
11385;DHT22;5747;56.748;13.882;2023-11-21T01:27:37;1.70;99.90
11385;DHT22;5747;56.748;13.882;2023-11-21T01:30:06;1.70;99.90
11385;DHT22;5747;56.748;13.882;2023-11-21T01:32:37;1.70;99.90
11385;DHT22;5747;56.748;13.882;2023-11-21T01:35:08;1.70;99.90
11385;DHT22;5747;56.748;13.882;2023-11-21T01:37:37;1.70;99.90
11385;DHT22;5747;56.748;13.882;2023-11-21T01:40:07;1.70;99.90
11385;DHT22;5747;56.748;13.882;2023-11-21T01:42:38;1.70;99.90
11385;DHT22;5747;56.748;13.882;2023-11-21T01:45:07;1.70;99.90
11385;DHT22;5747;56.748;13.882;2023-11-21T01:47:36;1.70;99.90
11385;DHT22;5747;56.748;13.882;2023-11-21T01:50:08;1.70;99.90
11385;DHT22;5747;56.748;13.882;2023-11-21T01:52:39;1.80;99.90
11385;DHT22;5747;56.748;13.882;2023-11-21T01:55:08;1.70;99.90
11385;DHT22;5747;56.748;13.882;2023-11-21T01:57:37;1.80;99.90
11385;DHT22;5747;56.748;13.882;2023-11-21T02:00:06;1.80;99.90
11385;DHT22;5747;56.748;13.882;2023-11-21T02:02:43;1.80;99.90
11385;DHT22;5747;56.748;13.882;2023-11-21T02:05:15;1.80;99.90
11385;DHT22;5747;56.748;13.882;2023-11-21T02:07:45;1.80;99.90
11385;DHT22;5747;56.748;13.882;2023-11-21T02:10:15;1.80;99.90
11385;DHT22;5747;56.748;13.882;2023-11-21T02:12:44;1.90;99.90
11385;DHT22;5747;56.748;13.882;2023-11-21T02:15:13;1.80;99.90
11385;DHT22;5747;56.748;13.882;2023-11-21T02:17:47;1.80;99.90
11385;DHT22;5747;56.748;13.882;2023-11-21T02:20:21;1.80;99.90
11385;DHT22;5747;56.748;13.882;2023-11-21T02:22:55;1.80;99.90
11385;DHT22;5747;56.748;13.882;2023-11-21T02:25:27;1.80;99.90
11385;DHT22;5747;56.748;13.882;2023-11-21T02:27:56;1.80;99.90
11385;DHT22;5747;56.748;13.882;2023-11-21T02:30:25;1.80;99.90
11385;DHT22;5747;56.748;13.882;2023-11-21T02:32:55;1.70;99.90
11385;DHT22;5747;56.748;13.882;2023-11-21T02:35:25;1.70;99.90
11385;DHT22;5747;56.748;13.882;2023-11-21T02:37:55;1.60;99.90
11385;DHT22;5747;56.748;13.882;2023-11-21T02:40:24;1.70;99.90
11385;DHT22;5747;56.748;13.882;2023-11-21T02:42:54;1.70;99.90
11385;DHT22;5747;56.748;13.882;2023-11-21T02:45:24;1.70;99.90
11385;DHT22;5747;56.748;13.882;2023-11-21T02:47:52;1.70;99.90
11385;DHT22;5747;56.748;13.882;2023-11-21T02:50:25;1.70;99.90
11385;DHT22;5747;56.748;13.882;2023-11-21T02:52:55;1.60;99.90
11385;DHT22;5747;56.748;13.882;2023-11-21T02:55:25;1.60;99.90
11385;DHT22;5747;56.748;13.882;2023-11-21T02:57:53;1.60;99.90
11385;DHT22;5747;56.748;13.882;2023-11-21T03:00:23;1.60;99.90
11385;DHT22;5747;56.748;13.882;2023-11-21T03:02:54;1.60;99.90
11385;DHT22;5747;56.748;13.882;2023-11-21T03:05:25;1.60;99.90
11385;DHT22;5747;56.748;13.882;2023-11-21T03:07:54;1.60;99.90
11385;DHT22;5747;56.748;13.882;2023-11-21T03:10:25;1.60;99.90
11385;DHT22;5747;56.748;13.882;2023-11-21T03:12:55;1.60;99.90
11385;DHT22;5747;56.748;13.882;2023-11-21T03:15:24;1.60;99.90
11385;DHT22;5747;56.748;13.882;2023-11-21T03:17:52;1.60;99.90
11385;DHT22;5747;56.748;13.882;2023-11-21T03:20:20;1.60;99.90
11385;DHT22;5747;56.748;13.882;2023-11-21T03:22:48;1.60;99.90
11385;DHT22;5747;56.748;13.882;2023-11-21T03:25:18;1.60;99.90
11385;DHT22;5747;56.748;13.882;2023-11-21T03:27:47;1.60;99.90
11385;DHT22;5747;56.748;13.882;2023-11-21T03:30:15;1.60;99.90
11385;DHT22;5747;56.748;13.882;2023-11-21T03:32:43;1.60;99.90
11385;DHT22;5747;56.748;13.882;2023-11-21T03:35:12;1.60;99.90
11385;DHT22;5747;56.748;13.882;2023-11-21T03:37:40;1.60;99.90
11385;DHT22;5747;56.748;13.882;2023-11-21T03:40:10;1.60;99.90
11385;DHT22;5747;56.748;13.882;2023-11-21T03:42:41;1.60;99.90
11385;DHT22;5747;56.748;13.882;2023-11-21T03:45:10;1.60;99.90
11385;DHT22;5747;56.748;13.882;2023-11-21T03:47:40;1.60;99.90
11385;DHT22;5747;56.748;13.882;2023-11-21T03:50:09;1.70;99.90
11385;DHT22;5747;56.748;13.882;2023-11-21T03:52:37;1.60;99.90
11385;DHT22;5747;56.748;13.882;2023-11-21T03:55:06;1.70;99.90
11385;DHT22;5747;56.748;13.882;2023-11-21T03:57:34;1.70;99.90
11385;DHT22;5747;56.748;13.882;2023-11-21T04:00:06;1.70;99.90
11385;DHT22;5747;56.748;13.882;2023-11-21T04:02:38;1.70;99.90
11385;DHT22;5747;56.748;13.882;2023-11-21T04:05:07;1.70;99.90
11385;DHT22;5747;56.748;13.882;2023-11-21T04:07:36;1.70;99.90
11385;DHT22;5747;56.748;13.882;2023-11-21T04:10:06;1.80;99.90
11385;DHT22;5747;56.748;13.882;2023-11-21T04:12:36;1.70;99.90
11385;DHT22;5747;56.748;13.882;2023-11-21T04:15:06;1.80;99.90
11385;DHT22;5747;56.748;13.882;2023-11-21T04:17:36;1.80;99.90
11385;DHT22;5747;56.748;13.882;2023-11-21T04:20:05;1.80;99.90
11385;DHT22;5747;56.748;13.882;2023-11-21T04:22:37;1.90;99.90
11385;DHT22;5747;56.748;13.882;2023-11-21T04:25:08;1.80;99.90
11385;DHT22;5747;56.748;13.882;2023-11-21T04:27:38;1.90;99.90
11385;DHT22;5747;56.748;13.882;2023-11-21T04:30:09;1.80;99.90
11385;DHT22;5747;56.748;13.882;2023-11-21T04:32:38;1.80;99.90
11385;DHT22;5747;56.748;13.882;2023-11-21T04:35:07;1.80;99.90
11385;DHT22;5747;56.748;13.882;2023-11-21T04:37:36;1.80;99.90
11385;DHT22;5747;56.748;13.882;2023-11-21T04:40:05;1.80;99.90
11385;DHT22;5747;56.748;13.882;2023-11-21T04:42:34;1.80;99.90
11385;DHT22;5747;56.748;13.882;2023-11-21T04:45:04;1.80;99.90
11385;DHT22;5747;56.748;13.882;2023-11-21T04:47:36;1.70;99.90
11385;DHT22;5747;56.748;13.882;2023-11-21T04:50:05;1.80;99.90
11385;DHT22;5747;56.748;13.882;2023-11-21T04:52:34;1.70;99.90
11385;DHT22;5747;56.748;13.882;2023-11-21T04:55:02;1.80;99.90
11385;DHT22;5747;56.748;13.882;2023-11-21T04:57:31;1.70;99.90
11385;DHT22;5747;56.748;13.882;2023-11-21T04:59:59;1.70;99.90
11385;DHT22;5747;56.748;13.882;2023-11-21T05:02:27;1.70;99.90
11385;DHT22;5747;56.748;13.882;2023-11-21T05:05:03;1.70;99.90
11385;DHT22;5747;56.748;13.882;2023-11-21T05:07:33;1.70;99.90
11385;DHT22;5747;56.748;13.882;2023-11-21T05:10:04;1.70;99.90
11385;DHT22;5747;56.748;13.882;2023-11-21T05:12:35;1.60;99.90
11385;DHT22;5747;56.748;13.882;2023-11-21T05:15:05;1.70;99.90
11385;DHT22;5747;56.748;13.882;2023-11-21T05:17:36;1.60;99.90
11385;DHT22;5747;56.748;13.882;2023-11-21T05:20:08;1.60;99.90
11385;DHT22;5747;56.748;13.882;2023-11-21T05:22:37;1.60;99.90
11385;DHT22;5747;56.748;13.882;2023-11-21T05:25:06;1.70;99.90
11385;DHT22;5747;56.748;13.882;2023-11-21T05:27:35;1.60;99.90
11385;DHT22;5747;56.748;13.882;2023-11-21T05:30:04;1.60;99.90
11385;DHT22;5747;56.748;13.882;2023-11-21T05:32:33;1.60;99.90
11385;DHT22;5747;56.748;13.882;2023-11-21T05:35:02;1.50;99.90
11385;DHT22;5747;56.748;13.882;2023-11-21T05:37:31;1.40;99.90
11385;DHT22;5747;56.748;13.882;2023-11-21T05:39:59;1.40;99.90
11385;DHT22;5747;56.748;13.882;2023-11-21T05:42:33;1.30;99.90
11385;DHT22;5747;56.748;13.882;2023-11-21T05:45:01;1.20;99.90
11385;DHT22;5747;56.748;13.882;2023-11-21T05:47:37;1.10;99.90
11385;DHT22;5747;56.748;13.882;2023-11-21T05:50:07;1.10;99.90
11385;DHT22;5747;56.748;13.882;2023-11-21T05:52:38;0.90;99.90
11385;DHT22;5747;56.748;13.882;2023-11-21T05:55:07;0.90;99.90
11385;DHT22;5747;56.748;13.882;2023-11-21T05:57:36;0.80;99.90
11385;DHT22;5747;56.748;13.882;2023-11-21T06:00:06;0.70;99.90
11385;DHT22;5747;56.748;13.882;2023-11-21T06:02:38;0.70;99.90
11385;DHT22;5747;56.748;13.882;2023-11-21T06:05:08;0.70;99.90
11385;DHT22;5747;56.748;13.882;2023-11-21T06:07:38;0.60;99.90
11385;DHT22;5747;56.748;13.882;2023-11-21T06:10:08;0.50;99.90
11385;DHT22;5747;56.748;13.882;2023-11-21T06:12:38;0.60;99.90
11385;DHT22;5747;56.748;13.882;2023-11-21T06:15:08;0.50;99.90
11385;DHT22;5747;56.748;13.882;2023-11-21T06:17:36;0.50;99.90
11385;DHT22;5747;56.748;13.882;2023-11-21T06:20:06;0.40;99.90
11385;DHT22;5747;56.748;13.882;2023-11-21T06:22:38;0.40;99.90
11385;DHT22;5747;56.748;13.882;2023-11-21T06:25:08;0.30;99.90
11385;DHT22;5747;56.748;13.882;2023-11-21T06:27:38;0.30;99.90
11385;DHT22;5747;56.748;13.882;2023-11-21T06:30:07;0.10;99.90
11385;DHT22;5747;56.748;13.882;2023-11-21T06:32:37;0.10;99.90
11385;DHT22;5747;56.748;13.882;2023-11-21T06:35:06;0.10;99.90
11385;DHT22;5747;56.748;13.882;2023-11-21T06:37:35;0.00;99.90
11385;DHT22;5747;56.748;13.882;2023-11-21T06:40:06;0.10;99.90
11385;DHT22;5747;56.748;13.882;2023-11-21T06:42:34;0.10;99.90
11385;DHT22;5747;56.748;13.882;2023-11-21T06:45:06;0.20;99.90
11385;DHT22;5747;56.748;13.882;2023-11-21T06:47:34;0.20;99.90
11385;DHT22;5747;56.748;13.882;2023-11-21T06:50:03;0.30;99.90
11385;DHT22;5747;56.748;13.882;2023-11-21T06:52:31;0.30;99.90
11385;DHT22;5747;56.748;13.882;2023-11-21T06:54:59;0.40;99.90
11385;DHT22;5747;56.748;13.882;2023-11-21T06:57:28;0.40;99.90
11385;DHT22;5747;56.748;13.882;2023-11-21T06:59:57;0.50;99.90
11385;DHT22;5747;56.748;13.882;2023-11-21T07:02:25;0.50;99.90
11385;DHT22;5747;56.748;13.882;2023-11-21T07:04:53;0.40;99.90
11385;DHT22;5747;56.748;13.882;2023-11-21T07:07:21;0.50;99.90
11385;DHT22;5747;56.748;13.882;2023-11-21T07:09:49;0.50;99.90
11385;DHT22;5747;56.748;13.882;2023-11-21T07:12:18;0.50;99.90
11385;DHT22;5747;56.748;13.882;2023-11-21T07:14:51;0.50;99.90
11385;DHT22;5747;56.748;13.882;2023-11-21T07:17:20;0.50;99.90
11385;DHT22;5747;56.748;13.882;2023-11-21T07:19:50;0.50;99.90
11385;DHT22;5747;56.748;13.882;2023-11-21T07:22:18;0.50;99.90
11385;DHT22;5747;56.748;13.882;2023-11-21T07:24:48;0.60;99.90
11385;DHT22;5747;56.748;13.882;2023-11-21T07:27:17;0.60;99.90
11385;DHT22;5747;56.748;13.882;2023-11-21T07:29:46;0.70;99.90
11385;DHT22;5747;56.748;13.882;2023-11-21T07:32:16;0.70;99.90
11385;DHT22;5747;56.748;13.882;2023-11-21T07:34:44;0.80;99.90
11385;DHT22;5747;56.748;13.882;2023-11-21T07:37:12;0.80;99.90
11385;DHT22;5747;56.748;13.882;2023-11-21T07:39:41;0.80;99.90
11385;DHT22;5747;56.748;13.882;2023-11-21T07:42:09;0.80;99.90
11385;DHT22;5747;56.748;13.882;2023-11-21T07:44:38;0.90;99.90
11385;DHT22;5747;56.748;13.882;2023-11-21T07:47:06;0.90;99.90
11385;DHT22;5747;56.748;13.882;2023-11-21T07:49:36;0.90;99.90
11385;DHT22;5747;56.748;13.882;2023-11-21T07:52:04;0.90;99.90
11385;DHT22;5747;56.748;13.882;2023-11-21T07:54:32;1.00;99.90
11385;DHT22;5747;56.748;13.882;2023-11-21T07:57:03;1.00;99.90
11385;DHT22;5747;56.748;13.882;2023-11-21T07:59:31;1.10;99.90
11385;DHT22;5747;56.748;13.882;2023-11-21T08:01:59;1.00;99.90
11385;DHT22;5747;56.748;13.882;2023-11-21T08:04:27;1.10;99.90
11385;DHT22;5747;56.748;13.882;2023-11-21T08:07:01;1.10;99.90
11385;DHT22;5747;56.748;13.882;2023-11-21T08:09:31;1.10;99.90
11385;DHT22;5747;56.748;13.882;2023-11-21T08:12:01;1.10;99.90
11385;DHT22;5747;56.748;13.882;2023-11-21T08:14:30;1.10;99.90
11385;DHT22;5747;56.748;13.882;2023-11-21T08:16:58;1.20;99.90
11385;DHT22;5747;56.748;13.882;2023-11-21T08:19:26;1.20;99.90
11385;DHT22;5747;56.748;13.882;2023-11-21T08:21:54;1.10;99.90
11385;DHT22;5747;56.748;13.882;2023-11-21T08:24:24;1.10;99.90
11385;DHT22;5747;56.748;13.882;2023-11-21T08:26:52;1.10;99.90
11385;DHT22;5747;56.748;13.882;2023-11-21T08:29:21;1.20;99.90
11385;DHT22;5747;56.748;13.882;2023-11-21T08:31:50;1.30;99.90
11385;DHT22;5747;56.748;13.882;2023-11-21T08:34:18;1.30;99.90
11385;DHT22;5747;56.748;13.882;2023-11-21T08:36:46;1.30;99.90
11385;DHT22;5747;56.748;13.882;2023-11-21T08:39:14;1.30;99.90
11385;DHT22;5747;56.748;13.882;2023-11-21T08:41:44;1.40;99.90
11385;DHT22;5747;56.748;13.882;2023-11-21T08:44:13;1.40;99.90
11385;DHT22;5747;56.748;13.882;2023-11-21T08:46:43;1.40;99.90
11385;DHT22;5747;56.748;13.882;2023-11-21T08:49:12;1.40;99.90
11385;DHT22;5747;56.748;13.882;2023-11-21T08:51:41;1.50;99.90
11385;DHT22;5747;56.748;13.882;2023-11-21T08:54:09;1.40;99.90
11385;DHT22;5747;56.748;13.882;2023-11-21T08:56:38;1.50;99.90
11385;DHT22;5747;56.748;13.882;2023-11-21T08:59:08;1.50;99.90
11385;DHT22;5747;56.748;13.882;2023-11-21T09:01:36;1.60;99.90
11385;DHT22;5747;56.748;13.882;2023-11-21T09:04:05;1.70;99.90
11385;DHT22;5747;56.748;13.882;2023-11-21T09:06:33;1.70;99.90
11385;DHT22;5747;56.748;13.882;2023-11-21T09:09:02;1.80;99.90
11385;DHT22;5747;56.748;13.882;2023-11-21T15:42:34;0.80;99.90
11385;DHT22;5747;56.748;13.882;2023-11-21T15:45:03;0.80;99.90
11385;DHT22;5747;56.748;13.882;2023-11-21T15:47:34;0.70;99.90
11385;DHT22;5747;56.748;13.882;2023-11-21T15:50:02;0.80;99.90
11385;DHT22;5747;56.748;13.882;2023-11-21T15:52:35;0.70;99.90
11385;DHT22;5747;56.748;13.882;2023-11-21T15:55:22;0.70;99.90
11385;DHT22;5747;56.748;13.882;2023-11-21T15:57:51;0.70;99.90
11385;DHT22;5747;56.748;13.882;2023-11-21T16:00:20;0.80;99.90
11385;DHT22;5747;56.748;13.882;2023-11-21T16:02:49;0.70;99.90
11385;DHT22;5747;56.748;13.882;2023-11-21T16:05:20;0.70;99.90
11385;DHT22;5747;56.748;13.882;2023-11-21T16:07:48;0.60;99.90
11385;DHT22;5747;56.748;13.882;2023-11-21T16:10:17;0.70;99.90
11385;DHT22;5747;56.748;13.882;2023-11-21T16:12:46;0.70;99.90
11385;DHT22;5747;56.748;13.882;2023-11-21T16:15:15;0.70;99.90
11385;DHT22;5747;56.748;13.882;2023-11-21T16:17:45;0.70;99.90
11385;DHT22;5747;56.748;13.882;2023-11-21T16:20:13;0.60;99.90
11385;DHT22;5747;56.748;13.882;2023-11-21T16:22:42;0.60;99.90
11385;DHT22;5747;56.748;13.882;2023-11-21T16:25:12;0.60;99.90
11385;DHT22;5747;56.748;13.882;2023-11-21T16:27:41;0.60;99.90
11385;DHT22;5747;56.748;13.882;2023-11-21T16:30:11;0.70;99.90
11385;DHT22;5747;56.748;13.882;2023-11-21T16:32:40;0.80;99.90
11385;DHT22;5747;56.748;13.882;2023-11-21T16:35:09;0.90;99.90
11385;DHT22;5747;56.748;13.882;2023-11-21T16:37:39;0.80;99.90
11385;DHT22;5747;56.748;13.882;2023-11-21T16:40:09;0.90;99.90
11385;DHT22;5747;56.748;13.882;2023-11-21T16:42:38;0.90;99.90
11385;DHT22;5747;56.748;13.882;2023-11-21T16:45:07;1.00;99.90
11385;DHT22;5747;56.748;13.882;2023-11-21T16:47:35;0.90;99.90
11385;DHT22;5747;56.748;13.882;2023-11-21T16:50:06;0.90;99.90
11385;DHT22;5747;56.748;13.882;2023-11-21T16:52:35;0.90;99.90
11385;DHT22;5747;56.748;13.882;2023-11-21T16:55:05;0.90;99.90
11385;DHT22;5747;56.748;13.882;2023-11-21T16:57:36;0.90;99.90
11385;DHT22;5747;56.748;13.882;2023-11-21T17:00:06;0.90;99.90
11385;DHT22;5747;56.748;13.882;2023-11-21T17:02:38;0.90;99.90
11385;DHT22;5747;56.748;13.882;2023-11-21T17:05:09;0.80;99.90
11385;DHT22;5747;56.748;13.882;2023-11-21T17:07:38;0.90;99.90
11385;DHT22;5747;56.748;13.882;2023-11-21T17:10:06;1.00;99.90
11385;DHT22;5747;56.748;13.882;2023-11-21T17:12:36;1.00;99.90
11385;DHT22;5747;56.748;13.882;2023-11-21T17:15:06;1.00;99.90
11385;DHT22;5747;56.748;13.882;2023-11-21T17:17:36;1.00;99.90
11385;DHT22;5747;56.748;13.882;2023-11-21T17:20:06;1.00;99.90
11385;DHT22;5747;56.748;13.882;2023-11-21T17:22:39;1.10;99.90
11385;DHT22;5747;56.748;13.882;2023-11-21T17:25:08;1.10;99.90
11385;DHT22;5747;56.748;13.882;2023-11-21T17:27:37;1.10;99.90
11385;DHT22;5747;56.748;13.882;2023-11-21T17:30:06;1.20;99.90
11385;DHT22;5747;56.748;13.882;2023-11-21T17:32:35;1.20;99.90
11385;DHT22;5747;56.748;13.882;2023-11-21T17:35:04;1.10;99.90
11385;DHT22;5747;56.748;13.882;2023-11-21T17:37:33;1.10;99.90
11385;DHT22;5747;56.748;13.882;2023-11-21T17:40:03;1.10;99.90
11385;DHT22;5747;56.748;13.882;2023-11-21T17:42:34;1.10;99.90
11385;DHT22;5747;56.748;13.882;2023-11-21T17:45:02;1.00;99.90
11385;DHT22;5747;56.748;13.882;2023-11-21T17:47:31;1.10;99.90
11385;DHT22;5747;56.748;13.882;2023-11-21T17:49:59;1.00;99.90
11385;DHT22;5747;56.748;13.882;2023-11-21T17:52:28;0.90;99.90
11385;DHT22;5747;56.748;13.882;2023-11-21T17:54:56;0.70;99.90
11385;DHT22;5747;56.748;13.882;2023-11-21T17:57:25;0.60;99.90
11385;DHT22;5747;56.748;13.882;2023-11-21T17:59:53;0.50;99.90
11385;DHT22;5747;56.748;13.882;2023-11-21T18:02:21;0.50;99.90
11385;DHT22;5747;56.748;13.882;2023-11-21T18:04:50;0.40;99.90
11385;DHT22;5747;56.748;13.882;2023-11-21T18:07:18;0.30;99.90
11385;DHT22;5747;56.748;13.882;2023-11-21T18:09:46;0.30;99.90
11385;DHT22;5747;56.748;13.882;2023-11-21T18:12:15;0.30;99.90
11385;DHT22;5747;56.748;13.882;2023-11-21T18:14:47;0.10;99.90
11385;DHT22;5747;56.748;13.882;2023-11-21T18:17:15;-0.10;99.90
11385;DHT22;5747;56.748;13.882;2023-11-21T18:19:44;-0.30;99.90
11385;DHT22;5747;56.748;13.882;2023-11-21T18:22:15;-0.20;99.90
11385;DHT22;5747;56.748;13.882;2023-11-21T18:24:43;-0.30;99.90
11385;DHT22;5747;56.748;13.882;2023-11-21T18:27:11;-0.30;99.90
11385;DHT22;5747;56.748;13.882;2023-11-21T18:29:39;-0.40;99.90
11385;DHT22;5747;56.748;13.882;2023-11-21T18:32:09;-0.50;99.90
11385;DHT22;5747;56.748;13.882;2023-11-21T18:34:40;-0.50;99.90
11385;DHT22;5747;56.748;13.882;2023-11-21T18:37:10;-0.40;99.90
11385;DHT22;5747;56.748;13.882;2023-11-21T18:39:38;-0.40;99.90
11385;DHT22;5747;56.748;13.882;2023-11-21T18:42:06;-0.40;99.90
11385;DHT22;5747;56.748;13.882;2023-11-21T18:44:34;-0.30;99.90
11385;DHT22;5747;56.748;13.882;2023-11-21T18:47:21;-0.20;99.90
11385;DHT22;5747;56.748;13.882;2023-11-21T18:49:50;-0.10;99.90
11385;DHT22;5747;56.748;13.882;2023-11-21T18:52:18;0.00;99.90
11385;DHT22;5747;56.748;13.882;2023-11-21T18:54:47;0.00;99.90
11385;DHT22;5747;56.748;13.882;2023-11-21T18:57:15;0.00;99.90
11385;DHT22;5747;56.748;13.882;2023-11-21T18:59:44;-0.10;99.90
11385;DHT22;5747;56.748;13.882;2023-11-21T19:02:12;-0.10;99.90
11385;DHT22;5747;56.748;13.882;2023-11-21T19:04:42;-0.20;99.90
11385;DHT22;5747;56.748;13.882;2023-11-21T19:07:10;-0.10;99.90
11385;DHT22;5747;56.748;13.882;2023-11-21T19:09:39;-0.20;99.90
11385;DHT22;5747;56.748;13.882;2023-11-21T19:12:08;-0.20;99.90
11385;DHT22;5747;56.748;13.882;2023-11-21T19:14:39;-0.30;99.90
11385;DHT22;5747;56.748;13.882;2023-11-21T19:17:11;-0.30;99.90
11385;DHT22;5747;56.748;13.882;2023-11-21T19:19:39;-0.30;99.90
11385;DHT22;5747;56.748;13.882;2023-11-21T19:22:09;-0.30;99.90
11385;DHT22;5747;56.748;13.882;2023-11-21T19:24:37;-0.30;99.90
11385;DHT22;5747;56.748;13.882;2023-11-21T19:27:07;-0.30;99.90
11385;DHT22;5747;56.748;13.882;2023-11-21T19:29:35;-0.40;99.90
11385;DHT22;5747;56.748;13.882;2023-11-21T19:32:06;-0.50;99.90
11385;DHT22;5747;56.748;13.882;2023-11-21T19:34:35;-0.50;99.90
11385;DHT22;5747;56.748;13.882;2023-11-21T19:37:04;-0.50;99.90
11385;DHT22;5747;56.748;13.882;2023-11-21T19:39:34;-0.50;99.90
11385;DHT22;5747;56.748;13.882;2023-11-21T19:42:03;-0.30;99.90
11385;DHT22;5747;56.748;13.882;2023-11-21T19:44:31;-0.10;99.90
11385;DHT22;5747;56.748;13.882;2023-11-21T19:47:04;-0.10;99.90
11385;DHT22;5747;56.748;13.882;2023-11-21T19:49:32;0.00;99.90
11385;DHT22;5747;56.748;13.882;2023-11-21T19:52:01;0.10;99.90
11385;DHT22;5747;56.748;13.882;2023-11-21T19:54:29;0.00;99.90
11385;DHT22;5747;56.748;13.882;2023-11-21T19:56:58;0.00;99.90
11385;DHT22;5747;56.748;13.882;2023-11-21T19:59:30;0.20;99.90
11385;DHT22;5747;56.748;13.882;2023-11-21T20:01:59;0.00;99.90
11385;DHT22;5747;56.748;13.882;2023-11-21T20:04:27;0.00;99.90
11385;DHT22;5747;56.748;13.882;2023-11-21T20:06:55;0.00;99.90
11385;DHT22;5747;56.748;13.882;2023-11-21T20:09:23;0.00;99.90
11385;DHT22;5747;56.748;13.882;2023-11-21T20:11:53;0.10;99.90
11385;DHT22;5747;56.748;13.882;2023-11-21T20:14:26;0.10;99.90
11385;DHT22;5747;56.748;13.882;2023-11-21T20:16:56;0.10;99.90
11385;DHT22;5747;56.748;13.882;2023-11-21T20:19:25;0.10;99.90
11385;DHT22;5747;56.748;13.882;2023-11-21T20:21:53;0.00;99.90
11385;DHT22;5747;56.748;13.882;2023-11-21T20:24:22;0.00;99.90
11385;DHT22;5747;56.748;13.882;2023-11-21T20:26:50;-0.20;99.90
11385;DHT22;5747;56.748;13.882;2023-11-21T20:29:18;-0.40;99.90
11385;DHT22;5747;56.748;13.882;2023-11-21T20:31:47;-0.40;99.90
11385;DHT22;5747;56.748;13.882;2023-11-21T20:34:16;-0.40;99.90
11385;DHT22;5747;56.748;13.882;2023-11-21T20:36:47;-0.50;99.90
11385;DHT22;5747;56.748;13.882;2023-11-21T20:39:16;-0.60;99.90
11385;DHT22;5747;56.748;13.882;2023-11-21T20:41:44;-0.70;99.90
11385;DHT22;5747;56.748;13.882;2023-11-21T20:44:13;-0.70;99.90
11385;DHT22;5747;56.748;13.882;2023-11-21T20:46:41;-0.90;99.90
11385;DHT22;5747;56.748;13.882;2023-11-21T20:49:11;-1.10;99.90
11385;DHT22;5747;56.748;13.882;2023-11-21T20:51:41;-1.20;99.90
11385;DHT22;5747;56.748;13.882;2023-11-21T20:54:12;-1.30;99.90
11385;DHT22;5747;56.748;13.882;2023-11-21T20:56:40;-1.40;99.90
11385;DHT22;5747;56.748;13.882;2023-11-21T20:59:08;-1.40;99.90
11385;DHT22;5747;56.748;13.882;2023-11-21T21:01:38;-1.50;99.90
11385;DHT22;5747;56.748;13.882;2023-11-21T21:04:06;-1.60;99.90
11385;DHT22;5747;56.748;13.882;2023-11-21T21:06:37;-1.60;99.90
11385;DHT22;5747;56.748;13.882;2023-11-21T21:09:05;-1.70;99.90
11385;DHT22;5747;56.748;13.882;2023-11-21T21:11:36;-1.90;99.90
11385;DHT22;5747;56.748;13.882;2023-11-21T21:14:05;-2.00;99.90
11385;DHT22;5747;56.748;13.882;2023-11-21T21:16:38;-2.00;99.90
11385;DHT22;5747;56.748;13.882;2023-11-21T21:19:09;-2.10;99.90
11385;DHT22;5747;56.748;13.882;2023-11-21T21:21:39;-2.00;99.90
11385;DHT22;5747;56.748;13.882;2023-11-21T21:24:07;-1.90;99.90
11385;DHT22;5747;56.748;13.882;2023-11-21T21:26:36;-1.80;99.90
11385;DHT22;5747;56.748;13.882;2023-11-21T21:29:05;-1.80;99.90
11385;DHT22;5747;56.748;13.882;2023-11-21T21:31:35;-1.90;99.90
11385;DHT22;5747;56.748;13.882;2023-11-21T21:34:03;-2.10;99.90
11385;DHT22;5747;56.748;13.882;2023-11-21T21:36:31;-2.10;99.90
11385;DHT22;5747;56.748;13.882;2023-11-21T21:39:01;-2.10;99.90
11385;DHT22;5747;56.748;13.882;2023-11-21T21:41:29;-1.90;99.90
11385;DHT22;5747;56.748;13.882;2023-11-21T21:43:57;-1.90;99.90
11385;DHT22;5747;56.748;13.882;2023-11-21T21:46:26;-2.00;99.90
11385;DHT22;5747;56.748;13.882;2023-11-21T21:48:54;-2.00;99.90
11385;DHT22;5747;56.748;13.882;2023-11-21T21:51:22;-1.80;99.90
11385;DHT22;5747;56.748;13.882;2023-11-21T21:53:50;-1.70;99.90
11385;DHT22;5747;56.748;13.882;2023-11-21T21:56:20;-1.70;99.90
11385;DHT22;5747;56.748;13.882;2023-11-21T21:58:49;-1.50;99.90
11385;DHT22;5747;56.748;13.882;2023-11-21T22:01:17;-1.40;99.90
11385;DHT22;5747;56.748;13.882;2023-11-21T22:03:46;-1.30;99.90
11385;DHT22;5747;56.748;13.882;2023-11-21T22:06:14;-1.30;99.90
11385;DHT22;5747;56.748;13.882;2023-11-21T22:08:43;-1.20;99.90
11385;DHT22;5747;56.748;13.882;2023-11-21T22:11:11;-1.10;99.90
11385;DHT22;5747;56.748;13.882;2023-11-21T22:13:40;-1.00;99.90
11385;DHT22;5747;56.748;13.882;2023-11-21T22:16:08;-1.00;99.90
11385;DHT22;5747;56.748;13.882;2023-11-21T22:18:37;-1.10;99.90
11385;DHT22;5747;56.748;13.882;2023-11-21T22:21:05;-1.10;99.90
11385;DHT22;5747;56.748;13.882;2023-11-21T22:23:33;-1.00;99.90
11385;DHT22;5747;56.748;13.882;2023-11-21T22:26:03;-1.00;99.90